sensor_id;sensor_type;location;lat;lon;timestamp;pressure;altitude;pressure_sealevel;temperature;humidity
12624;BME280;6377;42.836;23.998;2022-11-15T09:39:29;95966.25;;;8.10;100.00
12624;BME280;6377;42.836;23.998;2022-11-15T09:42:25;96044.03;;;9.08;100.00
12624;BME280;6377;42.836;23.998;2022-11-15T09:45:06;96039.00;;;9.38;100.00
12624;BME280;6377;42.836;23.998;2022-11-15T09:47:56;96008.41;;;9.12;100.00
12624;BME280;6377;42.836;23.998;2022-11-15T09:50:34;96002.09;;;8.96;100.00
12624;BME280;6377;42.836;23.998;2022-11-15T09:53:03;96018.84;;;9.21;100.00
12624;BME280;6377;42.836;23.998;2022-11-15T09:55:39;96017.06;;;9.46;100.00
12624;BME280;6377;42.836;23.998;2022-11-15T09:58:18;96015.44;;;10.09;100.00
12624;BME280;6377;42.836;23.998;2022-11-15T10:00:47;96007.53;;;10.18;100.00
12624;BME280;6377;42.836;23.998;2022-11-15T10:03:25;96007.44;;;10.58;100.00
12624;BME280;6377;42.836;23.998;2022-11-15T10:05:55;95997.66;;;10.66;100.00
12624;BME280;6377;42.836;23.998;2022-11-15T10:08:35;95996.53;;;11.00;100.00
12624;BME280;6377;42.836;23.998;2022-11-15T10:11:07;95986.88;;;11.07;100.00
12624;BME280;6377;42.836;23.998;2022-11-15T10:13:40;95984.56;;;11.35;100.00
12624;BME280;6377;42.836;23.998;2022-11-15T10:16:16;95986.13;;;11.97;100.00
12624;BME280;6377;42.836;23.998;2022-11-15T10:18:54;95949.44;;;11.63;100.00
12624;BME280;6377;42.836;23.998;2022-11-15T10:21:32;95974.81;;;12.03;100.00
12624;BME280;6377;42.836;23.998;2022-11-15T10:24:10;95965.34;;;12.67;100.00
12624;BME280;6377;42.836;23.998;2022-11-15T10:26:46;95963.66;;;12.81;100.00
12624;BME280;6377;42.836;23.998;2022-11-15T10:29:18;95953.75;;;13.19;100.00
12624;BME280;6377;42.836;23.998;2022-11-15T10:31:45;95950.66;;;13.36;100.00
12624;BME280;6377;42.836;23.998;2022-11-15T10:34:16;95947.44;;;13.83;100.00
12624;BME280;6377;42.836;23.998;2022-11-15T10:36:45;95939.44;;;14.04;98.24
12624;BME280;6377;42.836;23.998;2022-11-15T10:39:13;95937.84;;;13.40;98.51
12624;BME280;6377;42.836;23.998;2022-11-15T10:41:42;95934.66;;;12.79;100.00
12624;BME280;6377;42.836;23.998;2022-11-15T10:44:19;95933.28;;;12.83;100.00
12624;BME280;6377;42.836;23.998;2022-11-15T10:46:48;95930.34;;;13.08;100.00
12624;BME280;6377;42.836;23.998;2022-11-15T10:49:31;95923.22;;;12.79;100.00
12624;BME280;6377;42.836;23.998;2022-11-15T10:52:00;95914.19;;;12.94;100.00
12624;BME280;6377;42.836;23.998;2022-11-15T10:54:33;95914.19;;;13.24;100.00
12624;BME280;6377;42.836;23.998;2022-11-15T10:57:07;95904.22;;;13.54;100.00
12624;BME280;6377;42.836;23.998;2022-11-15T10:59:37;95904.66;;;13.36;100.00
12624;BME280;6377;42.836;23.998;2022-11-15T11:02:27;95903.97;;;13.70;100.00
12624;BME280;6377;42.836;23.998;2022-11-15T11:04:55;95903.06;;;13.84;96.13
12624;BME280;6377;42.836;23.998;2022-11-15T11:07:24;95880.63;;;13.93;94.65
12624;BME280;6377;42.836;23.998;2022-11-15T11:09:57;95892.28;;;14.20;91.42
12624;BME280;6377;42.836;23.998;2022-11-15T11:12:29;95888.72;;;13.78;91.13
12624;BME280;6377;42.836;23.998;2022-11-15T11:14:59;95879.81;;;13.43;93.15
12624;BME280;6377;42.836;23.998;2022-11-15T11:17:41;95878.94;;;13.58;93.52
12624;BME280;6377;42.836;23.998;2022-11-15T11:20:20;95811.78;;;13.77;89.67
12624;BME280;6377;42.836;23.998;2022-11-15T11:23:03;95865.72;;;14.26;87.76
12624;BME280;6377;42.836;23.998;2022-11-15T11:25:35;95850.28;;;14.43;85.15
12624;BME280;6377;42.836;23.998;2022-11-15T11:28:18;95847.91;;;14.27;85.84
12624;BME280;6377;42.836;23.998;2022-11-15T11:30:57;95834.75;;;14.46;85.36
12624;BME280;6377;42.836;23.998;2022-11-15T11:33:29;95833.66;;;13.72;86.20
12624;BME280;6377;42.836;23.998;2022-11-15T11:36:10;95840.03;;;13.50;89.24
12624;BME280;6377;42.836;23.998;2022-11-15T11:38:46;95837.47;;;13.63;89.48
12624;BME280;6377;42.836;23.998;2022-11-15T11:41:23;95830.44;;;13.28;89.79
12624;BME280;6377;42.836;23.998;2022-11-15T11:44:05;95839.03;;;13.09;91.95
12624;BME280;6377;42.836;23.998;2022-11-15T11:46:51;95818.84;;;12.93;93.09
12624;BME280;6377;42.836;23.998;2022-11-15T11:49:26;95815.97;;;12.38;97.46
12624;BME280;6377;42.836;23.998;2022-11-15T11:52:00;95814.19;;;12.09;100.00
12624;BME280;6377;42.836;23.998;2022-11-15T11:54:36;95816.53;;;11.74;100.00
12624;BME280;6377;42.836;23.998;2022-11-15T11:57:10;95816.91;;;11.34;100.00
12624;BME280;6377;42.836;23.998;2022-11-15T11:59:43;95804.94;;;11.23;100.00
12624;BME280;6377;42.836;23.998;2022-11-15T12:02:21;95807.47;;;11.17;100.00
12624;BME280;6377;42.836;23.998;2022-11-15T12:04:53;95802.19;;;11.17;100.00
12624;BME280;6377;42.836;23.998;2022-11-15T12:07:27;95797.59;;;11.11;100.00
12624;BME280;6377;42.836;23.998;2022-11-15T12:10:01;95789.19;;;11.07;100.00
12624;BME280;6377;42.836;23.998;2022-11-15T12:12:36;95765.63;;;10.98;100.00
12624;BME280;6377;42.836;23.998;2022-11-15T12:15:15;95789.84;;;11.09;100.00
12624;BME280;6377;42.836;23.998;2022-11-15T12:17:43;95778.09;;;10.89;100.00
12624;BME280;6377;42.836;23.998;2022-11-15T12:20:17;95790.31;;;10.90;100.00
12624;BME280;6377;42.836;23.998;2022-11-15T12:22:49;95784.56;;;10.87;100.00
12624;BME280;6377;42.836;23.998;2022-11-15T12:25:23;95775.94;;;10.70;100.00
12624;BME280;6377;42.836;23.998;2022-11-15T12:27:56;95782.28;;;10.61;100.00
12624;BME280;6377;42.836;23.998;2022-11-15T12:30:30;95784.63;;;10.56;100.00
12624;BME280;6377;42.836;23.998;2022-11-15T12:33:04;95781.50;;;10.52;100.00
12624;BME280;6377;42.836;23.998;2022-11-15T12:35:35;95783.84;;;10.47;100.00
12624;BME280;6377;42.836;23.998;2022-11-15T12:38:05;95771.81;;;10.45;100.00
12624;BME280;6377;42.836;23.998;2022-11-15T12:40:37;95761.09;;;10.38;100.00
12624;BME280;6377;42.836;23.998;2022-11-15T12:43:37;95775.03;;;10.55;100.00
12624;BME280;6377;42.836;23.998;2022-11-15T12:46:12;95770.78;;;10.46;100.00
12624;BME280;6377;42.836;23.998;2022-11-15T12:48:58;95768.28;;;10.52;100.00
12624;BME280;6377;42.836;23.998;2022-11-15T12:55:00;95768.97;;;10.46;100.00
12624;BME280;6377;42.836;23.998;2022-11-15T12:57:30;95773.31;;;10.39;100.00
12624;BME280;6377;42.836;23.998;2022-11-15T13:00:00;95774.84;;;10.34;100.00
12624;BME280;6377;42.836;23.998;2022-11-15T13:02:32;95773.41;;;10.23;100.00
12624;BME280;6377;42.836;23.998;2022-11-15T13:08:07;95774.13;;;10.09;100.00
12624;BME280;6377;42.836;23.998;2022-11-15T13:10:34;95723.06;;;9.78;100.00
12624;BME280;6377;42.836;23.998;2022-11-15T13:13:03;95769.34;;;10.04;100.00
12624;BME280;6377;42.836;23.998;2022-11-15T13:18:30;95762.66;;;9.86;100.00
12624;BME280;6377;42.836;23.998;2022-11-15T13:20:58;95764.50;;;9.85;100.00
12624;BME280;6377;42.836;23.998;2022-11-15T13:23:26;95756.59;;;9.77;100.00
12624;BME280;6377;42.836;23.998;2022-11-15T13:26:08;95763.31;;;9.88;100.00
12624;BME280;6377;42.836;23.998;2022-11-15T13:28:37;95760.50;;;9.89;100.00
12624;BME280;6377;42.836;23.998;2022-11-15T13:31:22;95739.06;;;9.84;100.00
12624;BME280;6377;42.836;23.998;2022-11-15T13:33:52;95758.50;;;9.91;100.00
12624;BME280;6377;42.836;23.998;2022-11-15T13:36:24;95760.63;;;9.96;100.00
12624;BME280;6377;42.836;23.998;2022-11-15T13:38:57;95765.63;;;9.91;100.00
12624;BME280;6377;42.836;23.998;2022-11-15T13:41:27;95764.44;;;9.93;100.00
12624;BME280;6377;42.836;23.998;2022-11-15T13:43:55;95763.47;;;9.94;100.00
12624;BME280;6377;42.836;23.998;2022-11-15T13:46:24;95766.09;;;9.94;100.00
12624;BME280;6377;42.836;23.998;2022-11-15T13:48:56;95762.50;;;9.87;100.00
12624;BME280;6377;42.836;23.998;2022-11-15T13:51:32;95698.00;;;9.35;100.00
12624;BME280;6377;42.836;23.998;2022-11-15T13:54:03;95760.59;;;9.57;100.00
12624;BME280;6377;42.836;23.998;2022-11-15T13:56:34;95764.25;;;9.56;100.00
12624;BME280;6377;42.836;23.998;2022-11-15T13:59:09;95763.63;;;9.46;100.00
12624;BME280;6377;42.836;23.998;2022-11-15T14:01:36;95766.63;;;9.35;100.00
12624;BME280;6377;42.836;23.998;2022-11-15T14:04:06;95759.88;;;9.32;100.00
12624;BME280;6377;42.836;23.998;2022-11-15T14:06:44;95762.00;;;9.29;100.00
12624;BME280;6377;42.836;23.998;2022-11-15T14:09:33;95765.16;;;9.16;100.00
12624;BME280;6377;42.836;23.998;2022-11-15T14:12:19;95766.53;;;9.04;100.00
12624;BME280;6377;42.836;23.998;2022-11-15T14:14:48;95750.34;;;8.91;100.00
12624;BME280;6377;42.836;23.998;2022-11-15T14:17:19;95755.66;;;8.83;100.00
12624;BME280;6377;42.836;23.998;2022-11-15T14:19:50;95744.94;;;8.68;100.00
12624;BME280;6377;42.836;23.998;2022-11-15T14:22:20;95759.09;;;8.67;100.00
12624;BME280;6377;42.836;23.998;2022-11-15T14:28:12;95763.88;;;8.39;100.00
12624;BME280;6377;42.836;23.998;2022-11-15T14:30:43;95757.41;;;8.34;100.00
12624;BME280;6377;42.836;23.998;2022-11-15T14:33:23;95759.72;;;8.29;100.00
12624;BME280;6377;42.836;23.998;2022-11-15T14:35:56;95756.53;;;8.25;100.00
12624;BME280;6377;42.836;23.998;2022-11-15T14:38:24;95762.63;;;8.18;100.00
12624;BME280;6377;42.836;23.998;2022-11-15T14:40:52;95762.75;;;8.08;100.00
12624;BME280;6377;42.836;23.998;2022-11-15T14:43:21;95771.28;;;7.94;100.00
12624;BME280;6377;42.836;23.998;2022-11-15T14:45:48;95769.94;;;7.90;100.00
12624;BME280;6377;42.836;23.998;2022-11-15T14:48:15;95766.63;;;7.80;100.00
12624;BME280;6377;42.836;23.998;2022-11-15T14:50:43;95758.34;;;7.67;100.00
12624;BME280;6377;42.836;23.998;2022-11-15T14:53:15;95760.00;;;7.68;100.00
12624;BME280;6377;42.836;23.998;2022-11-15T14:55:43;95774.50;;;7.72;100.00
12624;BME280;6377;42.836;23.998;2022-11-15T14:58:10;95773.50;;;7.73;100.00
12624;BME280;6377;42.836;23.998;2022-11-15T15:00:39;95763.59;;;7.67;100.00
12624;BME280;6377;42.836;23.998;2022-11-15T15:03:07;95760.31;;;7.65;100.00
12624;BME280;6377;42.836;23.998;2022-11-15T15:05:35;95775.06;;;7.58;100.00
12624;BME280;6377;42.836;23.998;2022-11-15T15:08:03;95766.94;;;7.43;100.00
12624;BME280;6377;42.836;23.998;2022-11-15T15:10:34;95770.25;;;7.45;100.00
12624;BME280;6377;42.836;23.998;2022-11-15T15:13:02;95773.66;;;7.38;100.00
12624;BME280;6377;42.836;23.998;2022-11-15T15:15:33;95778.41;;;7.34;100.00
12624;BME280;6377;42.836;23.998;2022-11-15T15:18:01;95772.66;;;7.30;100.00
12624;BME280;6377;42.836;23.998;2022-11-15T15:20:28;95767.38;;;7.30;100.00
12624;BME280;6377;42.836;23.998;2022-11-15T15:22:56;95764.44;;;7.33;100.00
12624;BME280;6377;42.836;23.998;2022-11-15T15:25:26;95773.13;;;7.34;100.00
12624;BME280;6377;42.836;23.998;2022-11-15T15:27:55;95758.88;;;7.37;100.00
12624;BME280;6377;42.836;23.998;2022-11-15T15:30:23;95728.88;;;7.21;100.00
12624;BME280;6377;42.836;23.998;2022-11-15T15:32:50;95752.09;;;7.34;100.00
12624;BME280;6377;42.836;23.998;2022-11-15T15:35:18;95759.78;;;7.53;100.00
12624;BME280;6377;42.836;23.998;2022-11-15T15:37:47;95762.44;;;7.61;100.00
12624;BME280;6377;42.836;23.998;2022-11-15T15:40:16;95756.72;;;7.66;100.00
12624;BME280;6377;42.836;23.998;2022-11-15T15:42:43;95728.84;;;7.55;100.00
12624;BME280;6377;42.836;23.998;2022-11-15T15:45:12;95750.31;;;7.76;100.00
12624;BME280;6377;42.836;23.998;2022-11-15T15:47:40;95760.34;;;7.73;100.00
12624;BME280;6377;42.836;23.998;2022-11-15T15:50:21;95726.41;;;7.62;100.00
12624;BME280;6377;42.836;23.998;2022-11-15T15:52:49;95754.63;;;7.77;100.00
12624;BME280;6377;42.836;23.998;2022-11-15T15:55:16;95754.75;;;7.76;100.00
12624;BME280;6377;42.836;23.998;2022-11-15T15:57:43;95754.44;;;7.79;100.00
12624;BME280;6377;42.836;23.998;2022-11-15T16:00:13;95744.72;;;7.71;100.00
12624;BME280;6377;42.836;23.998;2022-11-15T16:02:41;95750.97;;;7.78;100.00
12624;BME280;6377;42.836;23.998;2022-11-15T16:05:08;95747.69;;;7.76;100.00
12624;BME280;6377;42.836;23.998;2022-11-15T16:07:36;95751.88;;;7.53;100.00
12624;BME280;6377;42.836;23.998;2022-11-15T16:10:18;95742.69;;;7.57;100.00
12624;BME280;6377;42.836;23.998;2022-11-15T16:12:46;95749.06;;;7.55;100.00
12624;BME280;6377;42.836;23.998;2022-11-15T16:15:15;95743.19;;;7.61;100.00
12624;BME280;6377;42.836;23.998;2022-11-15T16:17:45;95748.94;;;7.56;100.00
12624;BME280;6377;42.836;23.998;2022-11-15T16:20:23;95723.06;;;7.52;100.00
12624;BME280;6377;42.836;23.998;2022-11-15T16:22:50;95741.56;;;7.68;100.00
12624;BME280;6377;42.836;23.998;2022-11-15T16:25:17;95739.97;;;7.75;100.00
12624;BME280;6377;42.836;23.998;2022-11-15T16:27:44;95740.31;;;7.80;100.00
12624;BME280;6377;42.836;23.998;2022-11-15T16:30:16;95744.75;;;7.79;100.00
12624;BME280;6377;42.836;23.998;2022-11-15T16:32:43;95731.91;;;7.76;100.00
12624;BME280;6377;42.836;23.998;2022-11-15T16:35:11;95737.34;;;7.83;100.00
12624;BME280;6377;42.836;23.998;2022-11-15T16:37:39;95728.75;;;7.73;100.00
12624;BME280;6377;42.836;23.998;2022-11-15T16:40:17;95739.81;;;7.84;100.00
12624;BME280;6377;42.836;23.998;2022-11-15T16:42:46;95730.59;;;7.80;100.00
12624;BME280;6377;42.836;23.998;2022-11-15T16:45:15;95724.81;;;7.77;100.00
12624;BME280;6377;42.836;23.998;2022-11-15T16:47:43;95721.97;;;7.62;100.00
12624;BME280;6377;42.836;23.998;2022-11-15T16:50:18;95726.06;;;7.57;100.00
12624;BME280;6377;42.836;23.998;2022-11-15T16:52:49;95715.03;;;7.53;100.00
12624;BME280;6377;42.836;23.998;2022-11-15T16:55:18;95719.94;;;7.48;100.00
12624;BME280;6377;42.836;23.998;2022-11-15T16:57:45;95708.25;;;7.43;100.00
12624;BME280;6377;42.836;23.998;2022-11-15T17:00:16;95713.00;;;7.39;100.00
12624;BME280;6377;42.836;23.998;2022-11-15T17:02:46;95714.25;;;7.27;100.00
12624;BME280;6377;42.836;23.998;2022-11-15T17:05:15;95687.72;;;7.12;100.00
12624;BME280;6377;42.836;23.998;2022-11-15T17:07:45;95709.28;;;7.16;100.00
12624;BME280;6377;42.836;23.998;2022-11-15T17:10:13;95705.41;;;7.02;100.00
12624;BME280;6377;42.836;23.998;2022-11-15T17:12:43;95708.53;;;7.06;100.00
12624;BME280;6377;42.836;23.998;2022-11-15T17:15:11;95701.59;;;6.97;100.00
12624;BME280;6377;42.836;23.998;2022-11-15T17:17:39;95697.94;;;6.90;100.00
12624;BME280;6377;42.836;23.998;2022-11-15T17:20:13;95656.34;;;6.59;100.00
12624;BME280;6377;42.836;23.998;2022-11-15T17:22:41;95691.06;;;6.97;100.00
12624;BME280;6377;42.836;23.998;2022-11-15T17:25:09;95679.03;;;6.86;100.00
12624;BME280;6377;42.836;23.998;2022-11-15T17:27:36;95678.13;;;7.03;100.00
12624;BME280;6377;42.836;23.998;2022-11-15T17:30:05;95680.91;;;7.02;100.00
12624;BME280;6377;42.836;23.998;2022-11-15T17:32:35;95686.91;;;6.86;100.00
12624;BME280;6377;42.836;23.998;2022-11-15T17:35:02;95684.63;;;6.91;100.00
12624;BME280;6377;42.836;23.998;2022-11-15T17:37:33;95683.34;;;6.95;100.00
12624;BME280;6377;42.836;23.998;2022-11-15T17:40:01;95671.50;;;6.91;100.00
12624;BME280;6377;42.836;23.998;2022-11-15T17:42:28;95664.63;;;6.98;100.00
12624;BME280;6377;42.836;23.998;2022-11-15T17:44:55;95656.25;;;7.03;100.00
12624;BME280;6377;42.836;23.998;2022-11-15T17:47:23;95661.22;;;7.06;100.00
12624;BME280;6377;42.836;23.998;2022-11-15T17:49:50;95651.97;;;7.02;100.00
12624;BME280;6377;42.836;23.998;2022-11-15T17:52:17;95652.97;;;7.01;100.00
12624;BME280;6377;42.836;23.998;2022-11-15T17:54:45;95654.16;;;7.06;100.00
12624;BME280;6377;42.836;23.998;2022-11-15T17:57:13;95650.88;;;7.04;100.00
12624;BME280;6377;42.836;23.998;2022-11-15T17:59:40;95642.78;;;6.98;100.00
12624;BME280;6377;42.836;23.998;2022-11-15T18:02:08;95640.28;;;6.96;100.00
12624;BME280;6377;42.836;23.998;2022-11-15T18:04:35;95626.56;;;6.76;100.00
12624;BME280;6377;42.836;23.998;2022-11-15T18:07:02;95637.28;;;6.83;100.00
12624;BME280;6377;42.836;23.998;2022-11-15T18:09:29;95652.69;;;6.78;100.00
12624;BME280;6377;42.836;23.998;2022-11-15T18:11:58;95642.31;;;6.76;100.00
12624;BME280;6377;42.836;23.998;2022-11-15T18:14:25;95640.22;;;6.80;100.00
12624;BME280;6377;42.836;23.998;2022-11-15T18:16:53;95632.22;;;6.64;100.00
12624;BME280;6377;42.836;23.998;2022-11-15T18:19:20;95642.28;;;6.68;100.00
12624;BME280;6377;42.836;23.998;2022-11-15T18:21:47;95638.66;;;6.69;100.00
12624;BME280;6377;42.836;23.998;2022-11-15T18:24:26;95632.69;;;6.59;100.00
12624;BME280;6377;42.836;23.998;2022-11-15T18:26:54;95626.47;;;6.60;100.00
12624;BME280;6377;42.836;23.998;2022-11-15T18:29:22;95630.28;;;6.66;100.00
12624;BME280;6377;42.836;23.998;2022-11-15T18:31:50;95631.78;;;6.68;100.00
12624;BME280;6377;42.836;23.998;2022-11-15T18:34:20;95632.75;;;6.67;100.00
12624;BME280;6377;42.836;23.998;2022-11-15T18:36:49;95607.13;;;6.44;100.00
12624;BME280;6377;42.836;23.998;2022-11-15T18:39:16;95622.50;;;6.56;100.00
12624;BME280;6377;42.836;23.998;2022-11-15T18:41:44;95624.28;;;6.56;100.00
12624;BME280;6377;42.836;23.998;2022-11-15T18:44:12;95582.47;;;6.37;100.00
12624;BME280;6377;42.836;23.998;2022-11-15T18:46:42;95613.66;;;6.57;100.00
12624;BME280;6377;42.836;23.998;2022-11-15T18:49:11;95610.53;;;6.62;100.00
12624;BME280;6377;42.836;23.998;2022-11-15T18:51:39;95574.34;;;6.48;100.00
12624;BME280;6377;42.836;23.998;2022-11-15T18:54:08;95605.50;;;6.68;100.00
12624;BME280;6377;42.836;23.998;2022-11-15T18:56:36;95602.47;;;6.63;100.00
12624;BME280;6377;42.836;23.998;2022-11-15T18:59:04;95593.81;;;6.63;100.00
12624;BME280;6377;42.836;23.998;2022-11-15T19:01:33;95589.00;;;6.58;100.00
12624;BME280;6377;42.836;23.998;2022-11-15T19:04:05;95594.78;;;6.62;100.00
12624;BME280;6377;42.836;23.998;2022-11-15T19:06:36;95556.63;;;6.24;100.00
12624;BME280;6377;42.836;23.998;2022-11-15T19:09:04;95606.44;;;6.59;100.00
12624;BME280;6377;42.836;23.998;2022-11-15T19:11:32;95602.31;;;6.57;100.00
12624;BME280;6377;42.836;23.998;2022-11-15T19:14:01;95608.59;;;6.38;100.00
12624;BME280;6377;42.836;23.998;2022-11-15T19:16:31;95599.34;;;6.34;100.00
12624;BME280;6377;42.836;23.998;2022-11-15T19:19:01;95601.94;;;6.26;100.00
12624;BME280;6377;42.836;23.998;2022-11-15T19:21:30;95584.06;;;6.04;100.00
12624;BME280;6377;42.836;23.998;2022-11-15T19:23:58;95591.31;;;6.10;100.00
12624;BME280;6377;42.836;23.998;2022-11-15T19:26:26;95592.53;;;5.98;100.00
12624;BME280;6377;42.836;23.998;2022-11-15T19:28:55;95589.25;;;5.96;100.00
12624;BME280;6377;42.836;23.998;2022-11-15T19:31:23;95535.25;;;5.58;100.00
12624;BME280;6377;42.836;23.998;2022-11-15T19:33:51;95549.72;;;5.62;100.00
12624;BME280;6377;42.836;23.998;2022-11-15T19:36:21;95588.25;;;5.79;100.00
12624;BME280;6377;42.836;23.998;2022-11-15T19:38:50;95570.09;;;5.68;100.00
12624;BME280;6377;42.836;23.998;2022-11-15T19:41:18;95576.72;;;5.90;100.00
12624;BME280;6377;42.836;23.998;2022-11-15T19:43:46;95571.84;;;5.95;100.00
12624;BME280;6377;42.836;23.998;2022-11-15T19:46:16;95556.63;;;5.81;100.00
12624;BME280;6377;42.836;23.998;2022-11-15T19:48:45;95579.34;;;5.90;100.00
12624;BME280;6377;42.836;23.998;2022-11-15T19:51:13;95566.13;;;5.82;100.00
12624;BME280;6377;42.836;23.998;2022-11-15T19:53:41;95578.88;;;5.94;100.00
12624;BME280;6377;42.836;23.998;2022-11-15T19:56:12;95575.44;;;5.94;100.00
12624;BME280;6377;42.836;23.998;2022-11-15T19:58:39;95579.06;;;5.93;100.00
12624;BME280;6377;42.836;23.998;2022-11-15T20:01:15;95579.56;;;5.96;100.00
12624;BME280;6377;42.836;23.998;2022-11-15T20:03:44;95584.81;;;5.96;100.00
12624;BME280;6377;42.836;23.998;2022-11-15T20:06:15;95572.97;;;5.92;100.00
12624;BME280;6377;42.836;23.998;2022-11-15T20:08:43;95571.53;;;5.98;100.00
12624;BME280;6377;42.836;23.998;2022-11-15T20:11:12;95552.41;;;5.88;100.00
12624;BME280;6377;42.836;23.998;2022-11-15T20:13:41;95552.84;;;5.83;100.00
12624;BME280;6377;42.836;23.998;2022-11-15T20:16:14;95556.31;;;5.84;100.00
12624;BME280;6377;42.836;23.998;2022-11-15T20:18:41;95575.78;;;5.99;100.00
12624;BME280;6377;42.836;23.998;2022-11-15T20:21:09;95573.50;;;5.96;100.00
12624;BME280;6377;42.836;23.998;2022-11-15T20:23:36;95573.94;;;5.91;100.00
12624;BME280;6377;42.836;23.998;2022-11-15T20:26:04;95575.44;;;5.94;100.00
12624;BME280;6377;42.836;23.998;2022-11-15T20:28:33;95574.31;;;5.96;100.00
12624;BME280;6377;42.836;23.998;2022-11-15T20:31:01;95547.91;;;5.80;100.00
12624;BME280;6377;42.836;23.998;2022-11-15T20:33:28;95568.44;;;6.02;100.00
12624;BME280;6377;42.836;23.998;2022-11-15T20:35:56;95570.09;;;6.03;100.00
12624;BME280;6377;42.836;23.998;2022-11-15T20:38:23;95570.25;;;6.02;100.00
12624;BME280;6377;42.836;23.998;2022-11-15T20:40:50;95547.69;;;5.91;100.00
12624;BME280;6377;42.836;23.998;2022-11-15T20:43:18;95561.03;;;5.98;100.00
12624;BME280;6377;42.836;23.998;2022-11-15T20:45:47;95510.66;;;5.59;100.00
12624;BME280;6377;42.836;23.998;2022-11-15T20:48:16;95549.50;;;5.91;100.00
12624;BME280;6377;42.836;23.998;2022-11-15T20:50:44;95557.84;;;5.86;100.00
12624;BME280;6377;42.836;23.998;2022-11-15T20:53:12;95553.53;;;5.68;100.00
12624;BME280;6377;42.836;23.998;2022-11-15T20:55:40;95544.69;;;5.69;100.00
12624;BME280;6377;42.836;23.998;2022-11-15T20:58:08;95534.75;;;5.54;100.00
12624;BME280;6377;42.836;23.998;2022-11-15T21:00:35;95538.75;;;5.66;100.00
12624;BME280;6377;42.836;23.998;2022-11-15T21:03:05;95536.84;;;5.69;100.00
12624;BME280;6377;42.836;23.998;2022-11-15T21:05:33;95532.53;;;5.68;100.00
12624;BME280;6377;42.836;23.998;2022-11-15T21:08:00;95533.16;;;5.61;100.00
12624;BME280;6377;42.836;23.998;2022-11-15T21:10:27;95527.97;;;5.52;100.00
12624;BME280;6377;42.836;23.998;2022-11-15T21:13:12;95524.69;;;5.50;100.00
12624;BME280;6377;42.836;23.998;2022-11-15T21:15:39;95519.44;;;5.50;100.00
12624;BME280;6377;42.836;23.998;2022-11-15T21:18:08;95517.44;;;5.44;100.00
12624;BME280;6377;42.836;23.998;2022-11-15T21:20:35;95516.41;;;5.19;100.00
12624;BME280;6377;42.836;23.998;2022-11-15T21:23:02;95512.34;;;5.07;100.00
12624;BME280;6377;42.836;23.998;2022-11-15T21:25:29;95511.34;;;5.08;100.00
12624;BME280;6377;42.836;23.998;2022-11-15T21:27:56;95513.59;;;5.03;100.00
12624;BME280;6377;42.836;23.998;2022-11-15T21:30:23;95506.69;;;5.02;100.00
12624;BME280;6377;42.836;23.998;2022-11-15T21:32:50;95508.88;;;5.06;100.00
12624;BME280;6377;42.836;23.998;2022-11-15T21:35:19;95505.81;;;5.11;100.00
12624;BME280;6377;42.836;23.998;2022-11-15T21:37:47;95507.03;;;5.17;100.00
12624;BME280;6377;42.836;23.998;2022-11-15T21:40:14;95507.34;;;5.14;100.00
12624;BME280;6377;42.836;23.998;2022-11-15T21:42:41;95509.72;;;5.07;100.00
12624;BME280;6377;42.836;23.998;2022-11-15T21:45:09;95501.31;;;4.86;100.00
12624;BME280;6377;42.836;23.998;2022-11-15T21:47:37;95493.50;;;4.76;100.00
12624;BME280;6377;42.836;23.998;2022-11-15T21:50:05;95498.44;;;4.79;100.00
12624;BME280;6377;42.836;23.998;2022-11-15T21:52:33;95494.69;;;4.82;100.00
12624;BME280;6377;42.836;23.998;2022-11-15T21:55:01;95491.78;;;4.85;100.00
12624;BME280;6377;42.836;23.998;2022-11-15T21:57:28;95477.47;;;4.79;100.00
12624;BME280;6377;42.836;23.998;2022-11-15T21:59:55;95495.53;;;5.00;100.00
12624;BME280;6377;42.836;23.998;2022-11-15T22:02:39;95491.22;;;5.08;100.00
12624;BME280;6377;42.836;23.998;2022-11-15T22:05:07;95497.66;;;5.14;100.00
12624;BME280;6377;42.836;23.998;2022-11-15T22:07:36;95486.19;;;5.15;100.00
12624;BME280;6377;42.836;23.998;2022-11-15T22:10:04;95487.69;;;5.18;100.00
12624;BME280;6377;42.836;23.998;2022-11-15T22:12:31;95476.91;;;5.21;100.00
12624;BME280;6377;42.836;23.998;2022-11-15T22:14:58;95472.78;;;5.18;100.00
12624;BME280;6377;42.836;23.998;2022-11-15T22:17:25;95475.13;;;5.21;100.00
12624;BME280;6377;42.836;23.998;2022-11-15T22:20:13;95471.06;;;5.27;100.00
12624;BME280;6377;42.836;23.998;2022-11-15T22:22:43;95463.41;;;5.33;100.00
12624;BME280;6377;42.836;23.998;2022-11-15T22:25:10;95460.34;;;5.38;100.00
12624;BME280;6377;42.836;23.998;2022-11-15T22:27:37;95462.50;;;5.42;100.00
12624;BME280;6377;42.836;23.998;2022-11-15T22:30:05;95452.69;;;5.44;100.00
12624;BME280;6377;42.836;23.998;2022-11-15T22:32:32;95443.28;;;5.34;100.00
12624;BME280;6377;42.836;23.998;2022-11-15T22:34:59;95449.78;;;5.30;100.00
12624;BME280;6377;42.836;23.998;2022-11-15T22:37:26;95438.47;;;5.29;100.00
12624;BME280;6377;42.836;23.998;2022-11-15T22:39:55;95443.88;;;5.28;100.00
12624;BME280;6377;42.836;23.998;2022-11-15T22:42:22;95432.41;;;5.29;100.00
12624;BME280;6377;42.836;23.998;2022-11-15T22:44:49;95417.28;;;5.23;100.00
12624;BME280;6377;42.836;23.998;2022-11-15T22:47:17;95423.25;;;5.33;100.00
12624;BME280;6377;42.836;23.998;2022-11-15T22:49:44;95431.78;;;5.35;100.00
12624;BME280;6377;42.836;23.998;2022-11-15T22:52:11;95436.19;;;5.34;100.00
12624;BME280;6377;42.836;23.998;2022-11-15T22:54:38;95434.06;;;5.30;100.00
12624;BME280;6377;42.836;23.998;2022-11-15T22:57:07;95427.88;;;5.13;100.00
12624;BME280;6377;42.836;23.998;2022-11-15T22:59:34;95417.59;;;5.02;100.00
12624;BME280;6377;42.836;23.998;2022-11-15T23:02:02;95406.59;;;4.98;100.00
12624;BME280;6377;42.836;23.998;2022-11-15T23:04:29;95412.88;;;5.05;100.00
12624;BME280;6377;42.836;23.998;2022-11-15T23:06:56;95409.81;;;5.10;100.00